sensor_id;sensor_type;location;lat;lon;timestamp;temperature;humidity
47600;DHT22;33323;52.124;6.018;2023-09-30T00:02:00;12.30;99.90
47600;DHT22;33323;52.124;6.018;2023-09-30T00:04:28;12.30;99.90
47600;DHT22;33323;52.124;6.018;2023-09-30T00:06:57;12.30;99.90
47600;DHT22;33323;52.124;6.018;2023-09-30T00:09:24;12.20;99.90
47600;DHT22;33323;52.124;6.018;2023-09-30T00:11:51;12.30;99.90
47600;DHT22;33323;52.124;6.018;2023-09-30T00:14:19;12.30;99.90
47600;DHT22;33323;52.124;6.018;2023-09-30T00:16:46;12.20;99.90
47600;DHT22;33323;52.124;6.018;2023-09-30T00:19:13;12.20;99.90
47600;DHT22;33323;52.124;6.018;2023-09-30T00:21:41;12.20;99.90
47600;DHT22;33323;52.124;6.018;2023-09-30T00:24:09;12.20;99.90
47600;DHT22;33323;52.124;6.018;2023-09-30T00:26:36;12.20;99.90
47600;DHT22;33323;52.124;6.018;2023-09-30T00:29:03;12.30;99.90
47600;DHT22;33323;52.124;6.018;2023-09-30T00:31:32;12.30;99.90
47600;DHT22;33323;52.124;6.018;2023-09-30T00:33:59;12.30;99.90
47600;DHT22;33323;52.124;6.018;2023-09-30T00:36:27;12.20;99.90
47600;DHT22;33323;52.124;6.018;2023-09-30T00:38:54;12.30;99.90
47600;DHT22;33323;52.124;6.018;2023-09-30T00:41:22;12.30;99.90
47600;DHT22;33323;52.124;6.018;2023-09-30T00:43:49;12.40;99.90
47600;DHT22;33323;52.124;6.018;2023-09-30T00:46:29;12.30;99.90
47600;DHT22;33323;52.124;6.018;2023-09-30T00:48:59;12.20;99.90
47600;DHT22;33323;52.124;6.018;2023-09-30T00:51:27;12.30;99.90
47600;DHT22;33323;52.124;6.018;2023-09-30T00:53:59;12.30;99.90
47600;DHT22;33323;52.124;6.018;2023-09-30T00:56:29;12.30;99.90
47600;DHT22;33323;52.124;6.018;2023-09-30T00:58:58;12.30;99.90
47600;DHT22;33323;52.124;6.018;2023-09-30T01:01:26;12.30;99.90
47600;DHT22;33323;52.124;6.018;2023-09-30T01:03:53;12.30;99.90
47600;DHT22;33323;52.124;6.018;2023-09-30T01:06:22;12.30;99.90
47600;DHT22;33323;52.124;6.018;2023-09-30T01:08:50;12.30;99.90
47600;DHT22;33323;52.124;6.018;2023-09-30T01:11:17;12.30;99.90
47600;DHT22;33323;52.124;6.018;2023-09-30T01:13:44;12.30;99.90
47600;DHT22;33323;52.124;6.018;2023-09-30T01:16:12;12.30;99.90
47600;DHT22;33323;52.124;6.018;2023-09-30T01:18:40;12.20;99.90
47600;DHT22;33323;52.124;6.018;2023-09-30T01:21:10;12.30;99.90
47600;DHT22;33323;52.124;6.018;2023-09-30T01:23:40;12.30;99.90
47600;DHT22;33323;52.124;6.018;2023-09-30T01:26:09;12.20;99.90
47600;DHT22;33323;52.124;6.018;2023-09-30T01:28:40;12.20;99.90
47600;DHT22;33323;52.124;6.018;2023-09-30T01:31:08;12.30;99.90
47600;DHT22;33323;52.124;6.018;2023-09-30T01:33:35;12.20;99.90
47600;DHT22;33323;52.124;6.018;2023-09-30T01:36:03;12.20;99.90
47600;DHT22;33323;52.124;6.018;2023-09-30T01:38:30;12.20;99.90
47600;DHT22;33323;52.124;6.018;2023-09-30T01:40:57;12.20;99.90
47600;DHT22;33323;52.124;6.018;2023-09-30T01:43:27;12.20;99.90
47600;DHT22;33323;52.124;6.018;2023-09-30T01:45:55;12.20;99.90
47600;DHT22;33323;52.124;6.018;2023-09-30T01:48:22;12.20;99.90
47600;DHT22;33323;52.124;6.018;2023-09-30T01:50:49;12.10;99.90
47600;DHT22;33323;52.124;6.018;2023-09-30T01:53:17;12.10;99.90
47600;DHT22;33323;52.124;6.018;2023-09-30T01:55:44;12.10;99.90
47600;DHT22;33323;52.124;6.018;2023-09-30T01:58:11;12.10;99.90
47600;DHT22;33323;52.124;6.018;2023-09-30T02:00:39;12.00;99.90
47600;DHT22;33323;52.124;6.018;2023-09-30T02:03:06;12.00;99.90
47600;DHT22;33323;52.124;6.018;2023-09-30T02:05:34;12.10;99.90
47600;DHT22;33323;52.124;6.018;2023-09-30T02:08:03;12.00;99.90
47600;DHT22;33323;52.124;6.018;2023-09-30T02:10:32;12.10;99.90
47600;DHT22;33323;52.124;6.018;2023-09-30T02:13:00;12.10;99.90
47600;DHT22;33323;52.124;6.018;2023-09-30T02:15:27;12.20;99.90
47600;DHT22;33323;52.124;6.018;2023-09-30T02:17:54;12.20;99.90
47600;DHT22;33323;52.124;6.018;2023-09-30T02:20:21;12.20;99.90
47600;DHT22;33323;52.124;6.018;2023-09-30T02:22:52;12.20;99.90
47600;DHT22;33323;52.124;6.018;2023-09-30T02:25:21;12.20;99.90
47600;DHT22;33323;52.124;6.018;2023-09-30T02:27:50;12.20;99.90
47600;DHT22;33323;52.124;6.018;2023-09-30T02:30:17;12.20;99.90
47600;DHT22;33323;52.124;6.018;2023-09-30T02:32:45;12.20;99.90
47600;DHT22;33323;52.124;6.018;2023-09-30T02:35:14;12.30;99.90
47600;DHT22;33323;52.124;6.018;2023-09-30T02:37:43;12.30;99.90
47600;DHT22;33323;52.124;6.018;2023-09-30T02:40:11;12.20;99.90
47600;DHT22;33323;52.124;6.018;2023-09-30T02:42:39;12.20;99.90
47600;DHT22;33323;52.124;6.018;2023-09-30T02:45:09;12.20;99.90
47600;DHT22;33323;52.124;6.018;2023-09-30T02:47:39;12.20;99.90
47600;DHT22;33323;52.124;6.018;2023-09-30T02:50:09;12.20;99.90
47600;DHT22;33323;52.124;6.018;2023-09-30T02:52:40;12.20;99.90
47600;DHT22;33323;52.124;6.018;2023-09-30T02:55:09;12.20;99.90
47600;DHT22;33323;52.124;6.018;2023-09-30T02:57:38;12.20;99.90
47600;DHT22;33323;52.124;6.018;2023-09-30T03:00:10;12.10;99.90
47600;DHT22;33323;52.124;6.018;2023-09-30T03:02:51;12.20;99.90
47600;DHT22;33323;52.124;6.018;2023-09-30T03:05:23;12.20;99.90
47600;DHT22;33323;52.124;6.018;2023-09-30T03:07:50;12.20;99.90
47600;DHT22;33323;52.124;6.018;2023-09-30T03:10:19;12.20;99.90
47600;DHT22;33323;52.124;6.018;2023-09-30T03:12:51;12.30;99.90
47600;DHT22;33323;52.124;6.018;2023-09-30T03:15:19;12.30;99.90
47600;DHT22;33323;52.124;6.018;2023-09-30T03:17:47;12.20;99.90
47600;DHT22;33323;52.124;6.018;2023-09-30T03:20:19;12.20;99.90
47600;DHT22;33323;52.124;6.018;2023-09-30T03:22:48;12.30;99.90
47600;DHT22;33323;52.124;6.018;2023-09-30T03:25:17;12.20;99.90
47600;DHT22;33323;52.124;6.018;2023-09-30T03:27:47;12.30;99.90
47600;DHT22;33323;52.124;6.018;2023-09-30T03:30:15;12.20;99.90
47600;DHT22;33323;52.124;6.018;2023-09-30T03:32:44;12.20;99.90
47600;DHT22;33323;52.124;6.018;2023-09-30T03:35:12;12.20;99.90
47600;DHT22;33323;52.124;6.018;2023-09-30T03:37:45;12.20;99.90
47600;DHT22;33323;52.124;6.018;2023-09-30T03:40:14;12.20;99.90
47600;DHT22;33323;52.124;6.018;2023-09-30T03:42:47;12.20;99.90
47600;DHT22;33323;52.124;6.018;2023-09-30T03:45:17;12.10;99.90
47600;DHT22;33323;52.124;6.018;2023-09-30T03:47:45;12.10;99.90
47600;DHT22;33323;52.124;6.018;2023-09-30T03:50:15;12.00;99.90
47600;DHT22;33323;52.124;6.018;2023-09-30T03:52:43;12.10;99.90
47600;DHT22;33323;52.124;6.018;2023-09-30T03:55:14;12.10;99.90
47600;DHT22;33323;52.124;6.018;2023-09-30T03:57:45;12.20;99.90
47600;DHT22;33323;52.124;6.018;2023-09-30T04:00:15;12.10;99.90
47600;DHT22;33323;52.124;6.018;2023-09-30T04:02:50;12.10;99.90
47600;DHT22;33323;52.124;6.018;2023-09-30T04:05:21;12.20;99.90
47600;DHT22;33323;52.124;6.018;2023-09-30T04:08:00;12.20;99.90
47600;DHT22;33323;52.124;6.018;2023-09-30T04:10:27;12.10;99.90
47600;DHT22;33323;52.124;6.018;2023-09-30T04:12:56;12.10;99.90
47600;DHT22;33323;52.124;6.018;2023-09-30T04:15:23;12.10;99.90
47600;DHT22;33323;52.124;6.018;2023-09-30T04:17:50;12.10;99.90
47600;DHT22;33323;52.124;6.018;2023-09-30T04:20:19;12.20;99.90
47600;DHT22;33323;52.124;6.018;2023-09-30T04:22:50;12.20;99.90
47600;DHT22;33323;52.124;6.018;2023-09-30T04:25:18;12.20;99.90
47600;DHT22;33323;52.124;6.018;2023-09-30T04:27:46;12.10;99.90
47600;DHT22;33323;52.124;6.018;2023-09-30T04:30:17;12.10;99.90
47600;DHT22;33323;52.124;6.018;2023-09-30T04:32:45;12.10;99.90
47600;DHT22;33323;52.124;6.018;2023-09-30T04:35:12;12.10;99.90
47600;DHT22;33323;52.124;6.018;2023-09-30T04:37:39;12.10;99.90
47600;DHT22;33323;52.124;6.018;2023-09-30T04:40:08;12.10;99.90
47600;DHT22;33323;52.124;6.018;2023-09-30T04:42:47;12.10;99.90
47600;DHT22;33323;52.124;6.018;2023-09-30T04:45:15;12.10;99.90
47600;DHT22;33323;52.124;6.018;2023-09-30T04:47:50;12.10;99.90
47600;DHT22;33323;52.124;6.018;2023-09-30T04:50:18;12.20;99.90
47600;DHT22;33323;52.124;6.018;2023-09-30T04:52:50;12.20;99.90
47600;DHT22;33323;52.124;6.018;2023-09-30T04:55:18;12.10;99.90
47600;DHT22;33323;52.124;6.018;2023-09-30T04:57:47;12.10;99.90
47600;DHT22;33323;52.124;6.018;2023-09-30T05:00:16;12.20;99.90
47600;DHT22;33323;52.124;6.018;2023-09-30T05:02:47;12.20;99.90
47600;DHT22;33323;52.124;6.018;2023-09-30T05:05:15;12.20;99.90
47600;DHT22;33323;52.124;6.018;2023-09-30T05:07:42;12.20;99.90
47600;DHT22;33323;52.124;6.018;2023-09-30T05:10:10;12.30;99.90
47600;DHT22;33323;52.124;6.018;2023-09-30T05:12:40;12.30;99.90
47600;DHT22;33323;52.124;6.018;2023-09-30T05:15:13;12.30;99.90
47600;DHT22;33323;52.124;6.018;2023-09-30T05:17:47;12.30;99.90
47600;DHT22;33323;52.124;6.018;2023-09-30T05:20:16;12.30;99.90
47600;DHT22;33323;52.124;6.018;2023-09-30T05:22:45;12.30;99.90
47600;DHT22;33323;52.124;6.018;2023-09-30T05:25:15;12.30;99.90
47600;DHT22;33323;52.124;6.018;2023-09-30T05:27:44;12.20;99.90
47600;DHT22;33323;52.124;6.018;2023-09-30T05:30:15;12.20;99.90
47600;DHT22;33323;52.124;6.018;2023-09-30T05:32:43;12.30;99.90
47600;DHT22;33323;52.124;6.018;2023-09-30T05:35:14;12.30;99.90
47600;DHT22;33323;52.124;6.018;2023-09-30T05:37:44;12.20;99.90
47600;DHT22;33323;52.124;6.018;2023-09-30T05:40:14;12.20;99.90
47600;DHT22;33323;52.124;6.018;2023-09-30T05:42:54;12.20;99.90
47600;DHT22;33323;52.124;6.018;2023-09-30T05:45:22;12.10;99.90
47600;DHT22;33323;52.124;6.018;2023-09-30T05:47:54;12.20;99.90
47600;DHT22;33323;52.124;6.018;2023-09-30T05:50:23;12.10;99.90
47600;DHT22;33323;52.124;6.018;2023-09-30T05:52:55;12.20;99.90
47600;DHT22;33323;52.124;6.018;2023-09-30T05:55:23;12.20;99.90
47600;DHT22;33323;52.124;6.018;2023-09-30T05:57:53;12.20;99.90
47600;DHT22;33323;52.124;6.018;2023-09-30T06:00:21;12.20;99.90
47600;DHT22;33323;52.124;6.018;2023-09-30T06:02:58;12.20;99.90
47600;DHT22;33323;52.124;6.018;2023-09-30T06:05:27;12.20;99.90
47600;DHT22;33323;52.124;6.018;2023-09-30T06:08:00;12.20;99.90
47600;DHT22;33323;52.124;6.018;2023-09-30T06:10:32;12.20;99.90
47600;DHT22;33323;52.124;6.018;2023-09-30T06:12:59;12.30;99.90
47600;DHT22;33323;52.124;6.018;2023-09-30T06:15:27;12.30;99.90
47600;DHT22;33323;52.124;6.018;2023-09-30T06:17:56;12.30;99.90
47600;DHT22;33323;52.124;6.018;2023-09-30T06:20:25;12.30;99.90
47600;DHT22;33323;52.124;6.018;2023-09-30T06:22:54;12.40;99.90
47600;DHT22;33323;52.124;6.018;2023-09-30T06:25:22;12.40;99.90
47600;DHT22;33323;52.124;6.018;2023-09-30T06:27:54;12.50;99.90
47600;DHT22;33323;52.124;6.018;2023-09-30T06:30:22;12.50;99.90
47600;DHT22;33323;52.124;6.018;2023-09-30T06:32:58;12.60;99.90
47600;DHT22;33323;52.124;6.018;2023-09-30T06:35:32;12.60;99.90
47600;DHT22;33323;52.124;6.018;2023-09-30T06:38:06;12.70;99.90
47600;DHT22;33323;52.124;6.018;2023-09-30T06:40:35;12.70;99.90
47600;DHT22;33323;52.124;6.018;2023-09-30T06:43:07;12.80;99.90
47600;DHT22;33323;52.124;6.018;2023-09-30T06:45:35;12.80;99.90
47600;DHT22;33323;52.124;6.018;2023-09-30T06:48:09;12.90;99.90
47600;DHT22;33323;52.124;6.018;2023-09-30T06:50:44;12.90;99.90
47600;DHT22;33323;52.124;6.018;2023-09-30T06:53:13;13.00;99.90
47600;DHT22;33323;52.124;6.018;2023-09-30T06:55:40;13.00;99.90
47600;DHT22;33323;52.124;6.018;2023-09-30T06:58:07;13.10;99.90
47600;DHT22;33323;52.124;6.018;2023-09-30T07:00:36;13.20;99.90
47600;DHT22;33323;52.124;6.018;2023-09-30T07:03:05;13.20;99.90
47600;DHT22;33323;52.124;6.018;2023-09-30T07:05:32;13.30;99.90
47600;DHT22;33323;52.124;6.018;2023-09-30T07:08:00;13.30;99.90
47600;DHT22;33323;52.124;6.018;2023-09-30T07:10:28;13.30;99.90
47600;DHT22;33323;52.124;6.018;2023-09-30T07:12:58;13.40;99.90
47600;DHT22;33323;52.124;6.018;2023-09-30T07:15:29;13.50;99.90
47600;DHT22;33323;52.124;6.018;2023-09-30T07:17:57;13.50;99.90
47600;DHT22;33323;52.124;6.018;2023-09-30T07:20:24;13.60;99.90
47600;DHT22;33323;52.124;6.018;2023-09-30T07:22:55;13.60;99.90
47600;DHT22;33323;52.124;6.018;2023-09-30T07:25:41;13.70;99.90
47600;DHT22;33323;52.124;6.018;2023-09-30T07:28:09;13.70;99.90
47600;DHT22;33323;52.124;6.018;2023-09-30T07:30:39;13.80;99.90
47600;DHT22;33323;52.124;6.018;2023-09-30T07:33:07;13.90;99.90
47600;DHT22;33323;52.124;6.018;2023-09-30T07:35:34;13.90;99.90
47600;DHT22;33323;52.124;6.018;2023-09-30T07:38:03;14.00;99.90
47600;DHT22;33323;52.124;6.018;2023-09-30T07:40:31;14.10;99.90
47600;DHT22;33323;52.124;6.018;2023-09-30T07:42:59;14.10;99.90
47600;DHT22;33323;52.124;6.018;2023-09-30T07:45:27;14.10;99.90
47600;DHT22;33323;52.124;6.018;2023-09-30T07:47:55;14.30;99.90
47600;DHT22;33323;52.124;6.018;2023-09-30T07:50:25;14.30;99.90
47600;DHT22;33323;52.124;6.018;2023-09-30T07:52:52;14.40;99.90
47600;DHT22;33323;52.124;6.018;2023-09-30T07:55:20;14.40;99.90
47600;DHT22;33323;52.124;6.018;2023-09-30T07:57:47;14.50;99.90
47600;DHT22;33323;52.124;6.018;2023-09-30T08:00:14;14.50;99.90
47600;DHT22;33323;52.124;6.018;2023-09-30T08:02:44;14.50;99.90
47600;DHT22;33323;52.124;6.018;2023-09-30T08:05:12;14.60;99.90
47600;DHT22;33323;52.124;6.018;2023-09-30T08:07:39;14.60;99.90
47600;DHT22;33323;52.124;6.018;2023-09-30T08:10:08;14.70;99.90
47600;DHT22;33323;52.124;6.018;2023-09-30T08:12:40;14.80;99.90
47600;DHT22;33323;52.124;6.018;2023-09-30T08:15:09;14.90;99.90
47600;DHT22;33323;52.124;6.018;2023-09-30T08:17:41;14.90;99.90
47600;DHT22;33323;52.124;6.018;2023-09-30T08:20:08;15.00;99.90
47600;DHT22;33323;52.124;6.018;2023-09-30T08:22:37;15.00;99.90
47600;DHT22;33323;52.124;6.018;2023-09-30T08:25:05;15.10;99.90
47600;DHT22;33323;52.124;6.018;2023-09-30T08:27:33;15.20;99.90
47600;DHT22;33323;52.124;6.018;2023-09-30T08:30:02;15.20;99.90
47600;DHT22;33323;52.124;6.018;2023-09-30T08:53:11;16.10;99.90
47600;DHT22;33323;52.124;6.018;2023-09-30T08:55:41;17.30;99.90
47600;DHT22;33323;52.124;6.018;2023-09-30T08:58:12;17.30;99.90
47600;DHT22;33323;52.124;6.018;2023-09-30T09:00:39;17.50;99.90
47600;DHT22;33323;52.124;6.018;2023-09-30T09:03:07;17.70;99.90
47600;DHT22;33323;52.124;6.018;2023-09-30T09:05:35;17.90;99.90
47600;DHT22;33323;52.124;6.018;2023-09-30T09:08:02;18.00;99.90
47600;DHT22;33323;52.124;6.018;2023-09-30T09:10:29;18.10;99.90
47600;DHT22;33323;52.124;6.018;2023-09-30T09:12:58;18.30;99.90
47600;DHT22;33323;52.124;6.018;2023-09-30T09:15:27;18.70;99.90
47600;DHT22;33323;52.124;6.018;2023-09-30T09:17:58;18.90;99.90
47600;DHT22;33323;52.124;6.018;2023-09-30T09:20:26;19.10;99.90
47600;DHT22;33323;52.124;6.018;2023-09-30T09:22:53;19.30;99.90
47600;DHT22;33323;52.124;6.018;2023-09-30T09:25:23;19.40;99.90
47600;DHT22;33323;52.124;6.018;2023-09-30T09:27:53;19.30;99.90
47600;DHT22;33323;52.124;6.018;2023-09-30T09:30:25;19.30;99.90
47600;DHT22;33323;52.124;6.018;2023-09-30T09:33:01;19.40;99.90
47600;DHT22;33323;52.124;6.018;2023-09-30T09:35:30;19.50;99.90
47600;DHT22;33323;52.124;6.018;2023-09-30T09:38:04;19.70;99.90
47600;DHT22;33323;52.124;6.018;2023-09-30T09:40:36;20.00;99.90
47600;DHT22;33323;52.124;6.018;2023-09-30T09:43:05;20.30;99.90
47600;DHT22;33323;52.124;6.018;2023-09-30T09:45:34;20.30;99.90
47600;DHT22;33323;52.124;6.018;2023-09-30T09:48:03;20.40;99.90
47600;DHT22;33323;52.124;6.018;2023-09-30T09:50:32;20.60;99.90
47600;DHT22;33323;52.124;6.018;2023-09-30T09:52:59;20.70;99.90
47600;DHT22;33323;52.124;6.018;2023-09-30T09:55:27;20.80;99.90
47600;DHT22;33323;52.124;6.018;2023-09-30T09:57:56;20.80;99.90
47600;DHT22;33323;52.124;6.018;2023-09-30T10:00:25;20.70;99.90
47600;DHT22;33323;52.124;6.018;2023-09-30T10:02:53;20.60;99.90
47600;DHT22;33323;52.124;6.018;2023-09-30T10:05:21;20.70;99.90
47600;DHT22;33323;52.124;6.018;2023-09-30T10:07:54;20.70;99.90
47600;DHT22;33323;52.124;6.018;2023-09-30T10:10:25;20.80;99.90
47600;DHT22;33323;52.124;6.018;2023-09-30T10:12:52;20.80;99.90
47600;DHT22;33323;52.124;6.018;2023-09-30T10:18:05;21.10;99.90
47600;DHT22;33323;52.124;6.018;2023-09-30T10:20:39;21.30;99.90
47600;DHT22;33323;52.124;6.018;2023-09-30T10:23:27;21.30;99.90
47600;DHT22;33323;52.124;6.018;2023-09-30T10:28:43;21.20;99.90
47600;DHT22;33323;52.124;6.018;2023-09-30T10:31:22;21.30;99.90
47600;DHT22;33323;52.124;6.018;2023-09-30T10:36:32;21.00;99.90
47600;DHT22;33323;52.124;6.018;2023-09-30T10:39:02;21.30;99.90
47600;DHT22;33323;52.124;6.018;2023-09-30T10:46:59;21.30;99.90
47600;DHT22;33323;52.124;6.018;2023-09-30T10:51:56;22.00;99.90
47600;DHT22;33323;52.124;6.018;2023-09-30T10:54:28;22.00;99.90
47600;DHT22;33323;52.124;6.018;2023-09-30T10:57:00;21.70;99.90
47600;DHT22;33323;52.124;6.018;2023-09-30T10:59:28;21.70;99.90
47600;DHT22;33323;52.124;6.018;2023-09-30T11:01:57;21.50;99.90
47600;DHT22;33323;52.124;6.018;2023-09-30T11:04:25;21.40;99.90
47600;DHT22;33323;52.124;6.018;2023-09-30T11:06:54;21.20;99.90
47600;DHT22;33323;52.124;6.018;2023-09-30T11:09:22;21.00;99.90
47600;DHT22;33323;52.124;6.018;2023-09-30T11:11:53;20.90;99.90
47600;DHT22;33323;52.124;6.018;2023-09-30T11:14:24;20.80;99.90
47600;DHT22;33323;52.124;6.018;2023-09-30T11:16:57;20.60;99.90
47600;DHT22;33323;52.124;6.018;2023-09-30T11:19:26;20.50;99.90
47600;DHT22;33323;52.124;6.018;2023-09-30T11:21:57;20.40;99.90
47600;DHT22;33323;52.124;6.018;2023-09-30T11:24:25;20.20;99.90
47600;DHT22;33323;52.124;6.018;2023-09-30T11:26:53;19.90;99.90
47600;DHT22;33323;52.124;6.018;2023-09-30T11:29:22;19.60;99.90
47600;DHT22;33323;52.124;6.018;2023-09-30T11:31:49;19.70;99.90
47600;DHT22;33323;52.124;6.018;2023-09-30T11:34:18;19.40;99.90
47600;DHT22;33323;52.124;6.018;2023-09-30T11:36:51;19.30;99.90
47600;DHT22;33323;52.124;6.018;2023-09-30T11:39:22;19.40;99.90
47600;DHT22;33323;52.124;6.018;2023-09-30T11:41:53;19.30;99.90
47600;DHT22;33323;52.124;6.018;2023-09-30T11:44:24;19.60;99.90
47600;DHT22;33323;52.124;6.018;2023-09-30T11:46:55;20.20;99.90
47600;DHT22;33323;52.124;6.018;2023-09-30T11:49:33;20.30;99.90
47600;DHT22;33323;52.124;6.018;2023-09-30T11:52:11;20.10;99.90
47600;DHT22;33323;52.124;6.018;2023-09-30T11:54:41;20.00;99.90
47600;DHT22;33323;52.124;6.018;2023-09-30T11:57:16;19.80;99.90
47600;DHT22;33323;52.124;6.018;2023-09-30T11:59:45;19.80;99.90
47600;DHT22;33323;52.124;6.018;2023-09-30T12:02:14;19.80;99.90
47600;DHT22;33323;52.124;6.018;2023-09-30T12:04:43;19.90;99.90
47600;DHT22;33323;52.124;6.018;2023-09-30T12:07:12;20.20;99.90
47600;DHT22;33323;52.124;6.018;2023-09-30T12:09:40;20.60;99.90
47600;DHT22;33323;52.124;6.018;2023-09-30T12:12:08;20.90;99.90
47600;DHT22;33323;52.124;6.018;2023-09-30T12:14:41;20.90;99.90
47600;DHT22;33323;52.124;6.018;2023-09-30T12:17:08;20.50;99.90
47600;DHT22;33323;52.124;6.018;2023-09-30T12:19:40;20.30;99.90
47600;DHT22;33323;52.124;6.018;2023-09-30T12:22:09;20.10;99.90
47600;DHT22;33323;52.124;6.018;2023-09-30T12:24:37;19.90;99.90
47600;DHT22;33323;52.124;6.018;2023-09-30T12:27:04;19.90;99.90
47600;DHT22;33323;52.124;6.018;2023-09-30T12:29:32;20.40;99.90
47600;DHT22;33323;52.124;6.018;2023-09-30T12:31:59;20.70;99.90
47600;DHT22;33323;52.124;6.018;2023-09-30T12:34:28;21.00;99.90
47600;DHT22;33323;52.124;6.018;2023-09-30T12:36:55;21.30;99.90
47600;DHT22;33323;52.124;6.018;2023-09-30T12:39:26;21.60;99.90
47600;DHT22;33323;52.124;6.018;2023-09-30T12:41:57;21.40;99.90
47600;DHT22;33323;52.124;6.018;2023-09-30T12:44:24;20.80;99.90
47600;DHT22;33323;52.124;6.018;2023-09-30T12:46:51;20.50;99.90
47600;DHT22;33323;52.124;6.018;2023-09-30T12:49:18;20.00;99.90
47600;DHT22;33323;52.124;6.018;2023-09-30T12:51:45;20.00;99.90
47600;DHT22;33323;52.124;6.018;2023-09-30T12:54:13;20.10;99.90
47600;DHT22;33323;52.124;6.018;2023-09-30T12:56:41;20.50;99.90
47600;DHT22;33323;52.124;6.018;2023-09-30T12:59:09;21.00;99.90
47600;DHT22;33323;52.124;6.018;2023-09-30T13:01:36;21.20;99.90
47600;DHT22;33323;52.124;6.018;2023-09-30T13:04:03;21.20;99.90
47600;DHT22;33323;52.124;6.018;2023-09-30T13:06:35;21.30;99.90
47600;DHT22;33323;52.124;6.018;2023-09-30T13:09:03;21.00;99.90
47600;DHT22;33323;52.124;6.018;2023-09-30T13:11:35;21.00;99.90
47600;DHT22;33323;52.124;6.018;2023-09-30T13:14:04;21.00;99.90
47600;DHT22;33323;52.124;6.018;2023-09-30T13:16:31;21.20;99.90
47600;DHT22;33323;52.124;6.018;2023-09-30T13:18:58;21.20;99.90
47600;DHT22;33323;52.124;6.018;2023-09-30T13:21:26;21.10;99.90
47600;DHT22;33323;52.124;6.018;2023-09-30T13:23:53;20.90;99.90
47600;DHT22;33323;52.124;6.018;2023-09-30T13:26:20;20.70;99.90
47600;DHT22;33323;52.124;6.018;2023-09-30T13:28:47;20.80;99.90
47600;DHT22;33323;52.124;6.018;2023-09-30T13:31:14;20.70;99.90
47600;DHT22;33323;52.124;6.018;2023-09-30T13:33:41;20.70;99.90
47600;DHT22;33323;52.124;6.018;2023-09-30T13:36:09;20.80;99.90
47600;DHT22;33323;52.124;6.018;2023-09-30T13:38:36;21.00;99.90
47600;DHT22;33323;52.124;6.018;2023-09-30T13:41:04;21.00;99.90
47600;DHT22;33323;52.124;6.018;2023-09-30T13:43:31;21.10;99.90
47600;DHT22;33323;52.124;6.018;2023-09-30T13:45:58;21.30;99.90
47600;DHT22;33323;52.124;6.018;2023-09-30T13:48:30;21.20;99.90
47600;DHT22;33323;52.124;6.018;2023-09-30T13:51:06;21.00;99.90
47600;DHT22;33323;52.124;6.018;2023-09-30T13:53:40;20.90;99.90
47600;DHT22;33323;52.124;6.018;2023-09-30T13:56:09;21.10;99.90
47600;DHT22;33323;52.124;6.018;2023-09-30T13:58:37;20.90;99.90
47600;DHT22;33323;52.124;6.018;2023-09-30T14:01:04;20.80;99.90
47600;DHT22;33323;52.124;6.018;2023-09-30T14:03:31;21.10;99.90
47600;DHT22;33323;52.124;6.018;2023-09-30T14:05:58;21.00;99.90
47600;DHT22;33323;52.124;6.018;2023-09-30T14:08:25;20.90;99.90
47600;DHT22;33323;52.124;6.018;2023-09-30T14:10:52;21.10;99.90
47600;DHT22;33323;52.124;6.018;2023-09-30T14:13:19;21.10;99.90
47600;DHT22;33323;52.124;6.018;2023-09-30T14:15:46;21.30;99.90
47600;DHT22;33323;52.124;6.018;2023-09-30T14:18:14;21.20;99.90
47600;DHT22;33323;52.124;6.018;2023-09-30T14:20:42;21.10;99.90
47600;DHT22;33323;52.124;6.018;2023-09-30T14:23:09;21.00;99.90
47600;DHT22;33323;52.124;6.018;2023-09-30T14:25:36;21.00;99.90
47600;DHT22;33323;52.124;6.018;2023-09-30T14:28:03;20.80;99.90
47600;DHT22;33323;52.124;6.018;2023-09-30T14:30:31;20.70;99.90
47600;DHT22;33323;52.124;6.018;2023-09-30T14:32:59;20.90;99.90
47600;DHT22;33323;52.124;6.018;2023-09-30T14:35:26;20.90;99.90
47600;DHT22;33323;52.124;6.018;2023-09-30T14:37:53;20.80;99.90
47600;DHT22;33323;52.124;6.018;2023-09-30T14:40:21;20.70;99.90
47600;DHT22;33323;52.124;6.018;2023-09-30T14:42:48;20.50;99.90
47600;DHT22;33323;52.124;6.018;2023-09-30T14:45:15;20.60;99.90
47600;DHT22;33323;52.124;6.018;2023-09-30T14:47:42;20.70;99.90
47600;DHT22;33323;52.124;6.018;2023-09-30T14:50:10;20.80;99.90
47600;DHT22;33323;52.124;6.018;2023-09-30T14:52:37;20.50;99.90
47600;DHT22;33323;52.124;6.018;2023-09-30T14:55:04;20.10;99.90
47600;DHT22;33323;52.124;6.018;2023-09-30T14:57:32;20.10;99.90
47600;DHT22;33323;52.124;6.018;2023-09-30T14:59:59;20.00;99.90
47600;DHT22;33323;52.124;6.018;2023-09-30T15:02:26;20.00;99.90
47600;DHT22;33323;52.124;6.018;2023-09-30T15:04:53;20.00;99.90
47600;DHT22;33323;52.124;6.018;2023-09-30T15:07:20;20.00;99.90
47600;DHT22;33323;52.124;6.018;2023-09-30T15:09:47;20.00;99.90
47600;DHT22;33323;52.124;6.018;2023-09-30T15:12:14;20.00;99.90
47600;DHT22;33323;52.124;6.018;2023-09-30T15:14:41;20.10;99.90
47600;DHT22;33323;52.124;6.018;2023-09-30T15:17:08;20.10;99.90
47600;DHT22;33323;52.124;6.018;2023-09-30T15:19:35;20.00;99.90
47600;DHT22;33323;52.124;6.018;2023-09-30T15:22:02;19.80;99.90
47600;DHT22;33323;52.124;6.018;2023-09-30T15:24:29;19.90;99.90
47600;DHT22;33323;52.124;6.018;2023-09-30T15:26:56;19.80;99.90
47600;DHT22;33323;52.124;6.018;2023-09-30T15:29:23;19.90;99.90
47600;DHT22;33323;52.124;6.018;2023-09-30T15:31:50;20.00;99.90
47600;DHT22;33323;52.124;6.018;2023-09-30T15:34:17;20.10;99.90
47600;DHT22;33323;52.124;6.018;2023-09-30T15:36:44;20.30;99.90
47600;DHT22;33323;52.124;6.018;2023-09-30T15:39:11;20.20;99.90
47600;DHT22;33323;52.124;6.018;2023-09-30T15:41:38;20.10;99.90
47600;DHT22;33323;52.124;6.018;2023-09-30T15:44:05;20.00;99.90
47600;DHT22;33323;52.124;6.018;2023-09-30T15:46:32;19.80;99.90
47600;DHT22;33323;52.124;6.018;2023-09-30T15:49:00;19.70;99.90
47600;DHT22;33323;52.124;6.018;2023-09-30T15:51:27;19.80;99.90
47600;DHT22;33323;52.124;6.018;2023-09-30T15:53:54;19.80;99.90
47600;DHT22;33323;52.124;6.018;2023-09-30T15:56:23;19.80;99.90
47600;DHT22;33323;52.124;6.018;2023-09-30T15:58:50;19.70;99.90
47600;DHT22;33323;52.124;6.018;2023-09-30T16:01:18;19.60;99.90
47600;DHT22;33323;52.124;6.018;2023-09-30T16:03:46;19.70;99.90
47600;DHT22;33323;52.124;6.018;2023-09-30T16:06:13;19.70;99.90
47600;DHT22;33323;52.124;6.018;2023-09-30T16:08:42;19.80;99.90
47600;DHT22;33323;52.124;6.018;2023-09-30T16:11:09;19.90;99.90
47600;DHT22;33323;52.124;6.018;2023-09-30T16:13:36;20.00;99.90
47600;DHT22;33323;52.124;6.018;2023-09-30T16:16:03;19.90;99.90
47600;DHT22;33323;52.124;6.018;2023-09-30T16:18:30;19.90;99.90